Time;durP1;ratioP1;P1;durP2;ratioP2;P2;SDS_P1;SDS_P2;PMS_P1;PMS_P2;Temp;Humidity;BMP_temperature;BMP_pressure;BME280_temperature;BME280_humidity;BME280_pressure;Samples;Min_cycle;Max_cycle;Signal;HPM_P1;HPM_P2
2023/06/05 00:01:11;;;;;;;7.82;4.60;;;;;;;-146.58;100.00;69501.63;5010922;28;20061;-61
2023/06/05 00:03:37;;;;;;;9.77;5.57;;;;;;;-146.58;100.00;69501.63;5011610;28;20037;-62
2023/06/05 00:06:02;;;;;;;10.50;5.25;;;;;;;-146.58;100.00;69501.63;5010296;28;20048;-60
2023/06/05 00:08:28;;;;;;;6.95;5.22;;;;;;;-146.58;100.00;69501.63;5012348;28;20103;-61
2023/06/05 00:10:53;;;;;;;26.88;14.40;;;;;;;-146.58;100.00;69501.63;5010353;28;20066;-60
2023/06/05 00:13:18;;;;;;;11.13;7.03;;;;;;;-146.58;100.00;69501.63;5011760;28;20033;-62
2023/06/05 00:15:44;;;;;;;9.82;6.45;;;;;;;-146.58;100.00;69501.63;5010456;28;20467;-61
2023/06/05 00:18:09;;;;;;;10.82;5.82;;;;;;;-146.58;100.00;69501.63;5012115;28;20424;-60
2023/06/05 00:20:35;;;;;;;8.18;6.05;;;;;;;-146.58;100.00;69501.63;5009847;28;20053;-61
2023/06/05 00:23:00;;;;;;;5.60;5.10;;;;;;;-146.58;100.00;69501.63;5011497;28;20037;-61
2023/06/05 00:25:25;;;;;;;8.30;5.35;;;;;;;-146.58;100.00;69501.63;5010328;28;20579;-62
2023/06/05 00:27:51;;;;;;;7.90;5.97;;;;;;;-146.58;100.00;69501.63;5011193;28;20092;-62
2023/06/05 00:30:16;;;;;;;6.22;5.63;;;;;;;-146.58;100.00;69501.63;5010106;28;20026;-61
2023/06/05 00:32:41;;;;;;;7.07;6.03;;;;;;;-146.58;100.00;69501.63;5011453;28;20039;-62
2023/06/05 00:35:08;;;;;;;9.98;6.10;;;;;;;-146.58;100.00;69501.63;5009665;28;20071;-61
2023/06/05 00:37:33;;;;;;;23.23;10.05;;;;;;;-146.58;100.00;69501.63;5011175;28;20050;-62
2023/06/05 00:39:59;;;;;;;10.57;6.93;;;;;;;-146.58;100.00;69501.63;5011412;28;20076;-62
2023/06/05 00:42:26;;;;;;;8.35;7.43;;;;;;;-146.58;100.00;69501.63;5009577;28;20390;-61
2023/06/05 00:44:52;;;;;;;12.00;8.88;;;;;;;-146.58;100.00;69501.63;5011418;28;20444;-62
2023/06/05 00:47:17;;;;;;;6.43;5.85;;;;;;;-146.58;100.00;69501.63;5010172;28;20133;-60
2023/06/05 00:49:43;;;;;;;7.38;6.03;;;;;;;-146.58;100.00;69501.63;5010172;28;20064;-60
2023/06/05 00:52:08;;;;;;;9.52;6.40;;;;;;;-146.58;100.00;69501.63;5009813;28;20531;-61
2023/06/05 00:54:34;;;;;;;9.20;7.50;;;;;;;-146.58;100.00;69501.63;5011314;28;20025;-60
2023/06/05 00:57:00;;;;;;;6.13;5.63;;;;;;;-146.58;100.00;69501.63;5009279;28;20066;-61
2023/06/05 00:59:26;;;;;;;10.73;6.43;;;;;;;-146.58;100.00;69501.63;5011553;28;20060;-61
2023/06/05 01:01:54;;;;;;;18.50;9.45;;;;;;;-146.58;100.00;69501.63;5009447;28;20046;-61
2023/06/05 01:04:19;;;;;;;27.95;10.25;;;;;;;-146.58;100.00;69501.63;5010669;28;20399;-62
2023/06/05 01:06:45;;;;;;;7.35;6.50;;;;;;;-146.58;100.00;69501.63;5009525;28;20049;-61
2023/06/05 01:09:13;;;;;;;9.45;6.72;;;;;;;-146.58;100.00;69501.63;5011387;28;20038;-61
2023/06/05 01:11:52;;;;;;;7.55;6.72;;;;;;;-146.58;100.00;69501.63;5009229;28;20041;-61
2023/06/05 01:14:36;;;;;;;26.08;8.48;;;;;;;-146.58;100.00;69501.63;5011153;28;20025;-61
2023/06/05 01:17:03;;;;;;;10.45;8.10;;;;;;;-146.58;100.00;69501.63;5009574;28;20041;-61
2023/06/05 01:19:30;;;;;;;29.48;15.63;;;;;;;-146.58;100.00;69501.63;5010794;28;20037;-58
2023/06/05 01:21:56;;;;;;;12.02;8.95;;;;;;;-146.58;100.00;69501.63;5008784;28;20038;-58
2023/06/05 01:24:22;;;;;;;13.77;10.13;;;;;;;-146.58;100.00;69501.63;5011119;28;20104;-59
2023/06/05 01:27:02;;;;;;;10.43;7.03;;;;;;;-146.58;100.00;69501.63;5008685;28;20042;-59
2023/06/05 01:29:35;;;;;;;8.70;7.80;;;;;;;-146.58;100.00;69501.63;5009608;28;20050;-58
2023/06/05 01:32:06;;;;;;;11.65;7.97;;;;;;;-146.58;100.00;69501.63;5011153;28;20101;-58
2023/06/05 01:34:32;;;;;;;13.07;8.82;;;;;;;-146.58;100.00;69501.63;5009194;28;20497;-59
2023/06/05 01:36:58;;;;;;;21.90;14.60;;;;;;;-146.58;100.00;69501.63;5010663;28;20080;-58
2023/06/05 01:39:25;;;;;;;15.07;10.10;;;;;;;-146.58;100.00;69501.63;5009528;28;20501;-58
2023/06/05 01:41:53;;;;;;;12.95;11.32;;;;;;;-146.58;100.00;69501.63;5010095;28;20125;-58
2023/06/05 01:44:19;;;;;;;12.63;10.10;;;;;;;-146.58;100.00;69501.63;5009432;28;20129;-58
2023/06/05 01:46:45;;;;;;;15.05;10.02;;;;;;;-146.58;100.00;69501.63;5010433;28;20986;-58
2023/06/05 01:49:10;;;;;;;13.95;9.95;;;;;;;-146.58;100.00;69501.63;5008928;28;20046;-61
2023/06/05 01:51:36;;;;;;;16.70;9.07;;;;;;;-146.58;100.00;69501.63;5010751;28;20048;-61
2023/06/05 01:54:02;;;;;;;12.90;8.77;;;;;;;-146.58;100.00;69501.63;5009408;28;20584;-61
2023/06/05 01:56:30;;;;;;;12.52;10.50;;;;;;;-146.58;100.00;69501.63;5010473;28;20030;-61
2023/06/05 01:58:55;;;;;;;11.57;10.43;;;;;;;-146.58;100.00;69501.63;5009398;28;20045;-61
2023/06/05 02:01:22;;;;;;;13.30;10.10;;;;;;;-146.58;100.00;69501.63;5010925;28;20022;-61
2023/06/05 02:03:49;;;;;;;12.07;10.10;;;;;;;-146.58;100.00;69501.63;5012135;28;20046;-60
2023/06/05 02:06:16;;;;;;;13.20;10.18;;;;;;;-146.58;100.00;69501.63;5014710;28;20026;-61
2023/06/05 02:08:41;;;;;;;13.43;9.45;;;;;;;-146.58;100.00;69501.63;5012690;28;20030;-61
2023/06/05 02:11:10;;;;;;;15.77;8.27;;;;;;;-146.58;100.00;69501.63;5013984;28;20380;-62
2023/06/05 02:13:40;;;;;;;11.43;9.70;;;;;;;-146.58;100.00;69501.63;5012906;28;20113;-61
2023/06/05 02:16:09;;;;;;;10.43;9.23;;;;;;;-146.58;100.00;69501.63;5013964;28;20481;-61
2023/06/05 02:18:36;;;;;;;18.63;11.05;;;;;;;-146.58;100.00;69501.63;5012345;28;20042;-62
2023/06/05 02:21:02;;;;;;;12.90;10.02;;;;;;;-146.58;100.00;69501.63;5014471;28;20018;-61
2023/06/05 02:23:28;;;;;;;27.92;15.02;;;;;;;-146.58;100.00;69501.63;5012249;28;20033;-61
2023/06/05 02:25:53;;;;;;;13.38;12.00;;;;;;;-146.58;100.00;69501.63;5013725;28;20033;-62
2023/06/05 02:28:20;;;;;;;14.57;9.45;;;;;;;-146.58;100.00;69501.63;5012729;28;20029;-62
2023/06/05 02:30:47;;;;;;;12.40;10.38;;;;;;;-146.58;100.00;69501.63;5013629;28;20021;-62
2023/06/05 02:33:14;;;;;;;12.48;9.65;;;;;;;-146.58;100.00;69501.63;5011931;28;20018;-62
2023/06/05 02:35:40;;;;;;;12.77;11.35;;;;;;;-146.58;100.00;69501.63;5013827;28;20026;-62
2023/06/05 02:38:07;;;;;;;15.68;10.98;;;;;;;-146.58;100.00;69501.63;5013829;28;20022;-62
2023/06/05 02:40:32;;;;;;;14.10;10.85;;;;;;;-146.58;100.00;69501.63;5012018;28;20456;-62
2023/06/05 02:42:57;;;;;;;19.77;13.27;;;;;;;-146.58;100.00;69501.63;5013777;28;20033;-62
2023/06/05 02:45:22;;;;;;;13.80;10.60;;;;;;;-146.58;100.00;69501.63;5012099;28;20400;-62
2023/06/05 02:47:48;;;;;;;13.55;12.13;;;;;;;-146.58;100.00;69501.63;5013255;28;20021;-63
2023/06/05 02:50:13;;;;;;;27.65;14.85;;;;;;;-146.58;100.00;69501.63;5012031;28;20080;-63
2023/06/05 02:52:39;;;;;;;19.00;12.48;;;;;;;-146.58;100.00;69501.63;5013116;28;20041;-62
2023/06/05 02:55:07;;;;;;;20.33;11.45;;;;;;;-146.58;100.00;69501.63;5011741;28;20529;-58
2023/06/05 02:57:35;;;;;;;15.73;12.32;;;;;;;-146.58;100.00;69501.63;5013713;28;20042;-58
2023/06/05 03:00:01;;;;;;;23.83;14.52;;;;;;;-146.58;100.00;69501.63;5012145;28;20037;-58
2023/06/05 03:02:28;;;;;;;12.25;10.45;;;;;;;-146.58;100.00;69501.63;5013027;28;20050;-58
2023/06/05 03:04:55;;;;;;;14.50;11.50;;;;;;;-146.58;100.00;69501.63;5011245;28;20497;-58
2023/06/05 03:07:22;;;;;;;16.70;12.07;;;;;;;-146.58;100.00;69501.63;5011924;28;20456;-59
2023/06/05 03:09:48;;;;;;;16.33;12.00;;;;;;;-146.58;100.00;69501.63;5011392;28;20120;-59
2023/06/05 03:12:13;;;;;;;16.60;11.13;;;;;;;-146.58;100.00;69501.63;5012902;28;20044;-59
2023/06/05 03:14:39;;;;;;;41.15;25.52;;;;;;;-146.58;100.00;69501.63;5011334;28;20040;-58
2023/06/05 03:17:05;;;;;;;18.08;13.05;;;;;;;-146.58;100.00;69501.63;5012988;28;20078;-58
2023/06/05 03:19:30;;;;;;;20.33;11.50;;;;;;;-146.58;100.00;69501.63;5011384;28;20523;-59
2023/06/05 03:21:56;;;;;;;16.67;13.13;;;;;;;-146.58;100.00;69501.63;5013000;28;20385;-59
2023/06/05 03:24:24;;;;;;;21.50;13.70;;;;;;;-146.58;100.00;69501.63;5011215;28;20046;-59
2023/06/05 03:26:50;;;;;;;15.85;11.50;;;;;;;-146.58;100.00;69501.63;5012623;28;20040;-58
2023/06/05 03:29:15;;;;;;;30.02;13.40;;;;;;;-146.58;100.00;69501.63;5011420;28;20468;-59
2023/06/05 03:31:42;;;;;;;21.98;14.70;;;;;;;-146.58;100.00;69501.63;5012138;28;20219;-58
2023/06/05 03:34:08;;;;;;;18.27;13.50;;;;;;;-146.58;100.00;69501.63;5011449;28;20034;-59
2023/06/05 03:36:34;;;;;;;20.55;15.18;;;;;;;-146.58;100.00;69501.63;5012508;28;20026;-59
2023/06/05 03:39:00;;;;;;;14.73;11.85;;;;;;;-146.58;100.00;69501.63;5010993;28;20121;-59
2023/06/05 03:41:25;;;;;;;15.82;13.48;;;;;;;-146.58;100.00;69501.63;5012439;28;20152;-59
2023/06/05 03:43:51;;;;;;;26.20;13.82;;;;;;;-146.58;100.00;69501.63;5010808;28;20042;-59
2023/06/05 03:46:19;;;;;;;22.20;11.95;;;;;;;-146.58;100.00;69501.63;5012352;28;20053;-59
2023/06/05 03:48:45;;;;;;;15.60;13.95;;;;;;;-146.58;100.00;69501.63;5010718;28;20046;-58
2023/06/05 03:51:11;;;;;;;12.70;11.40;;;;;;;-146.58;100.00;69501.63;5012325;28;20030;-59
2023/06/05 03:53:39;;;;;;;20.50;14.82;;;;;;;-146.58;100.00;69501.63;5010861;28;20033;-58
2023/06/05 03:56:05;;;;;;;17.83;16.00;;;;;;;-146.58;100.00;69501.63;5012264;28;20034;-59
2023/06/05 03:58:31;;;;;;;29.75;16.83;;;;;;;-146.58;100.00;69501.63;5010896;28;20040;-59
2023/06/05 04:00:56;;;;;;;33.17;19.67;;;;;;;-146.58;100.00;69501.63;5012096;28;20030;-58
2023/06/05 04:03:21;;;;;;;22.10;15.95;;;;;;;-146.58;100.00;69501.63;5010199;28;20046;-58
2023/06/05 04:05:47;;;;;;;19.92;17.83;;;;;;;-146.58;100.00;69501.63;5012196;28;20084;-59
2023/06/05 04:08:13;;;;;;;17.90;13.93;;;;;;;-146.58;100.00;69501.63;5010714;28;20396;-58
2023/06/05 04:10:40;;;;;;;17.00;13.13;;;;;;;-146.58;100.00;69501.63;5011081;28;20418;-58
2023/06/05 04:13:05;;;;;;;30.05;19.17;;;;;;;-146.58;100.00;69501.63;5010793;28;20546;-59
2023/06/05 04:15:31;;;;;;;17.13;13.73;;;;;;;-146.58;100.00;69501.63;5010349;28;20041;-59
2023/06/05 04:17:57;;;;;;;15.73;12.18;;;;;;;-146.58;100.00;69501.63;5011570;28;20377;-59
2023/06/05 04:20:22;;;;;;;28.58;17.10;;;;;;;-146.58;100.00;69501.63;5009871;28;20064;-59
2023/06/05 04:22:48;;;;;;;16.25;11.63;;;;;;;-146.58;100.00;69501.63;5011739;28;20362;-59
2023/06/05 04:25:14;;;;;;;24.33;12.80;;;;;;;-146.58;100.00;69501.63;5008876;28;20501;-59
2023/06/05 04:27:40;;;;;;;20.10;15.45;;;;;;;-146.58;100.00;69501.63;5011623;28;20030;-60
2023/06/05 04:30:07;;;;;;;22.95;16.80;;;;;;;-146.58;100.00;69501.63;5009818;28;20073;-59
2023/06/05 04:32:37;;;;;;;19.42;15.90;;;;;;;-146.58;100.00;69501.63;5010881;28;20112;-59
2023/06/05 04:35:03;;;;;;;21.98;15.57;;;;;;;-146.58;100.00;69501.63;5009921;28;20042;-59
2023/06/05 04:37:28;;;;;;;18.20;12.82;;;;;;;-146.58;100.00;69501.63;5010801;28;20018;-59
2023/06/05 04:39:54;;;;;;;23.35;17.63;;;;;;;-146.58;100.00;69501.63;5008891;28;20061;-59
2023/06/05 04:42:21;;;;;;;18.75;12.25;;;;;;;-146.58;100.00;69501.63;5011873;28;20022;-59
2023/06/05 04:45:03;;;;;;;23.73;13.60;;;;;;;-146.58;100.00;69501.63;5009718;28;20042;-59
2023/06/05 04:47:29;;;;;;;16.10;12.80;;;;;;;-146.58;100.00;69501.63;5009912;28;20406;-59
2023/06/05 04:49:57;;;;;;;17.55;13.40;;;;;;;-146.58;100.00;69501.63;5009662;28;20412;-59
2023/06/05 04:52:23;;;;;;;16.10;13.02;;;;;;;-146.58;100.00;69501.63;5011352;28;20061;-59
2023/06/05 04:54:49;;;;;;;14.82;11.85;;;;;;;-146.58;100.00;69501.63;5009449;28;20611;-59
2023/06/05 04:57:16;;;;;;;14.63;12.27;;;;;;;-146.58;100.00;69501.63;5011630;28;20028;-60
2023/06/05 04:59:42;;;;;;;22.40;12.85;;;;;;;-146.58;100.00;69501.63;5009364;28;20128;-59
2023/06/05 05:02:08;;;;;;;14.95;12.82;;;;;;;-146.58;100.00;69501.63;5010818;28;20060;-59
2023/06/05 05:04:34;;;;;;;20.88;14.27;;;;;;;-146.58;100.00;69501.63;5009767;28;20038;-59
2023/06/05 05:07:01;;;;;;;22.35;13.93;;;;;;;-146.58;100.00;69501.63;5011462;28;20089;-59
2023/06/05 05:09:30;;;;;;;20.30;13.63;;;;;;;-146.58;100.00;69501.63;5009176;28;20042;-59
2023/06/05 05:11:56;;;;;;;30.77;18.42;;;;;;;-146.58;100.00;69501.63;5011138;28;20087;-59
2023/06/05 05:14:21;;;;;;;18.92;12.43;;;;;;;-146.58;100.00;69501.63;5009683;28;20105;-60
2023/06/05 05:16:47;;;;;;;20.70;12.10;;;;;;;-146.58;100.00;69501.63;5009338;28;20025;-60
2023/06/05 05:19:13;;;;;;;15.90;12.60;;;;;;;-146.58;100.00;69501.63;5009768;28;20046;-59
2023/06/05 05:21:38;;;;;;;15.82;13.15;;;;;;;-146.58;100.00;69501.63;5010923;28;20520;-59
2023/06/05 05:24:06;;;;;;;20.33;11.85;;;;;;;-146.58;100.00;69501.63;5009370;28;20501;-60
2023/06/05 05:26:31;;;;;;;26.02;14.15;;;;;;;-146.58;100.00;69501.63;5011137;28;20516;-60
2023/06/05 05:28:57;;;;;;;16.23;11.93;;;;;;;-146.58;100.00;69501.63;5009030;28;20041;-59
2023/06/05 05:31:22;;;;;;;15.75;12.00;;;;;;;-146.58;100.00;69501.63;5010534;28;20044;-61
2023/06/05 05:33:48;;;;;;;29.95;19.17;;;;;;;-146.58;100.00;69501.63;5009570;28;20041;-63
2023/06/05 05:36:14;;;;;;;21.15;13.98;;;;;;;-146.58;100.00;69501.63;5012279;28;20022;-63
2023/06/05 05:38:40;;;;;;;17.73;10.70;;;;;;;-146.58;100.00;69501.63;5013157;28;20072;-63
2023/06/05 05:41:05;;;;;;;15.80;12.18;;;;;;;-146.58;100.00;69501.63;5015058;28;20026;-63
2023/06/05 05:43:31;;;;;;;21.33;11.32;;;;;;;-146.58;100.00;69501.63;5013308;28;20108;-63
2023/06/05 05:45:56;;;;;;;17.33;11.27;;;;;;;-146.58;100.00;69501.63;5014365;28;20022;-63
2023/06/05 05:48:22;;;;;;;18.58;12.23;;;;;;;-146.58;100.00;69501.63;5013347;28;20033;-63
2023/06/05 05:50:48;;;;;;;15.98;11.60;;;;;;;-146.58;100.00;69501.63;5014549;28;20525;-63
2023/06/05 05:53:13;;;;;;;19.25;12.10;;;;;;;-146.58;100.00;69501.63;5012998;28;20116;-62
2023/06/05 05:55:39;;;;;;;20.83;12.02;;;;;;;-146.58;100.00;69501.63;5014430;28;20421;-63
2023/06/05 05:58:04;;;;;;;16.13;11.85;;;;;;;-146.58;100.00;69501.63;5014673;28;20030;-63
2023/06/05 06:00:29;;;;;;;17.77;10.43;;;;;;;-146.58;100.00;69501.63;5012643;28;20053;-62
2023/06/05 06:02:55;;;;;;;17.00;12.55;;;;;;;-146.58;100.00;69501.63;5014238;28;20042;-63
2023/06/05 06:05:21;;;;;;;13.35;9.43;;;;;;;-146.58;100.00;69501.63;5012968;28;20038;-63
2023/06/05 06:07:46;;;;;;;14.88;11.05;;;;;;;-146.58;100.00;69501.63;5013837;28;20022;-61
2023/06/05 06:10:12;;;;;;;17.05;11.43;;;;;;;-146.58;100.00;69501.63;5012519;28;20049;-60
2023/06/05 06:12:37;;;;;;;21.98;12.30;;;;;;;-146.58;100.00;69501.63;5013518;28;20492;-60
2023/06/05 06:15:04;;;;;;;13.73;11.65;;;;;;;-146.58;100.00;69501.63;5012529;28;20497;-61
2023/06/05 06:17:29;;;;;;;16.30;12.50;;;;;;;-146.58;100.00;69501.63;5014156;28;20481;-61
2023/06/05 06:19:55;;;;;;;13.30;10.40;;;;;;;-146.58;100.00;69501.63;5012348;28;20045;-60
2023/06/05 06:22:20;;;;;;;16.35;11.60;;;;;;;-146.58;100.00;69501.63;5013854;28;20022;-61
2023/06/05 06:24:46;;;;;;;21.73;11.75;;;;;;;-146.58;100.00;69501.63;5008358;28;20471;-60
2023/06/05 06:27:12;;;;;;;13.70;11.23;;;;;;;-146.58;100.00;69501.63;5013102;28;20389;-61
2023/06/05 06:29:52;;;;;;;14.20;10.68;;;;;;;-146.58;100.00;69501.63;5011705;28;20493;-63
2023/06/05 06:32:17;;;;;;;17.23;10.38;;;;;;;-146.58;100.00;69501.63;4994145;28;20034;-60
2023/06/05 06:34:44;;;;;;;13.77;10.75;;;;;;;-146.58;100.00;69501.63;4992600;28;20549;-61
2023/06/05 06:37:11;;;;;;;12.38;9.80;;;;;;;-146.58;100.00;69501.63;4993848;28;20041;-61
2023/06/05 06:39:36;;;;;;;12.80;9.73;;;;;;;-146.58;100.00;69501.63;4992373;28;20043;-60
2023/06/05 06:42:02;;;;;;;14.13;8.70;;;;;;;-146.58;100.00;69501.63;4994982;28;20029;-60
2023/06/05 06:44:28;;;;;;;12.85;8.68;;;;;;;-146.58;100.00;69501.63;5011773;28;20049;-61
2023/06/05 06:46:53;;;;;;;13.75;9.38;;;;;;;-146.58;100.00;69501.63;5013206;28;20036;-60
2023/06/05 06:49:19;;;;;;;14.65;10.15;;;;;;;-146.58;100.00;69501.63;5011611;28;20041;-60
2023/06/05 06:51:44;;;;;;;16.33;11.43;;;;;;;-146.58;100.00;69501.63;5012325;28;20033;-61
2023/06/05 06:54:09;;;;;;;18.58;10.48;;;;;;;-146.58;100.00;69501.63;5012044;28;20049;-61
2023/06/05 06:56:36;;;;;;;15.80;9.13;;;;;;;-146.58;100.00;69501.63;5013234;28;20397;-61
2023/06/05 06:59:10;;;;;;;12.70;9.85;;;;;;;-146.58;100.00;69501.63;5011755;28;20038;-60
2023/06/05 07:01:40;;;;;;;15.15;8.95;;;;;;;-146.58;100.00;69501.63;5013037;28;20044;-61
2023/06/05 07:04:05;;;;;;;17.67;9.27;;;;;;;-146.58;100.00;69501.63;5011688;28;20497;-60
2023/06/05 07:06:32;;;;;;;18.92;8.63;;;;;;;-146.58;100.00;69501.63;5013027;28;20021;-61
2023/06/05 07:08:57;;;;;;;10.73;9.52;;;;;;;-146.58;100.00;69501.63;5011342;28;20072;-61
2023/06/05 07:11:22;;;;;;;11.80;8.60;;;;;;;-146.58;100.00;69501.63;5012882;28;20030;-60
2023/06/05 07:13:48;;;;;;;12.90;10.98;;;;;;;-146.58;100.00;69501.63;5011058;28;20033;-60
2023/06/05 07:16:13;;;;;;;13.23;10.18;;;;;;;-146.58;100.00;69501.63;5012950;28;20029;-60
2023/06/05 07:18:40;;;;;;;14.65;10.20;;;;;;;-146.58;100.00;69501.63;5011502;28;20034;-60
2023/06/05 07:21:05;;;;;;;11.57;9.35;;;;;;;-146.58;100.00;69501.63;5012600;28;20021;-60
2023/06/05 07:23:32;;;;;;;9.82;8.82;;;;;;;-146.58;100.00;69501.63;5014225;28;20037;-60
2023/06/05 07:25:57;;;;;;;10.57;8.73;;;;;;;-146.58;100.00;69501.63;5029502;28;20067;-61
2023/06/05 07:28:24;;;;;;;12.63;8.38;;;;;;;-146.58;100.00;69501.63;5027459;28;20186;-60
2023/06/05 07:30:50;;;;;;;13.07;8.15;;;;;;;-146.58;100.00;69501.63;5032223;28;20539;-61
2023/06/05 07:33:16;;;;;;;9.57;7.35;;;;;;;-146.58;100.00;69501.63;5030469;28;20078;-60
2023/06/05 07:35:42;;;;;;;18.05;9.45;;;;;;;-146.58;100.00;69501.63;5012523;28;20372;-60
2023/06/05 07:38:08;;;;;;;10.95;8.57;;;;;;;-146.58;100.00;69501.63;5012696;28;20029;-61
2023/06/05 07:40:33;;;;;;;10.57;8.35;;;;;;;-146.58;100.00;69501.63;5011468;28;20045;-59
2023/06/05 07:42:59;;;;;;;15.07;8.20;;;;;;;-146.58;100.00;69501.63;5012668;28;20431;-60
2023/06/05 07:45:24;;;;;;;15.93;7.53;;;;;;;-146.58;100.00;69501.63;5010444;28;20129;-60
2023/06/05 07:47:50;;;;;;;15.57;9.80;;;;;;;-146.58;100.00;69501.63;5012420;28;20022;-61
2023/06/05 07:50:15;;;;;;;16.92;8.07;;;;;;;-146.58;100.00;69501.63;5010896;28;20037;-61
2023/06/05 07:52:42;;;;;;;9.82;8.73;;;;;;;-146.58;100.00;69501.63;5011939;28;20029;-61
2023/06/05 07:55:07;;;;;;;13.70;8.02;;;;;;;-146.58;100.00;69501.63;5010814;28;20091;-60
2023/06/05 07:57:33;;;;;;;12.48;9.32;;;;;;;-146.58;100.00;69501.63;5011785;28;20481;-61
2023/06/05 07:59:58;;;;;;;10.75;7.38;;;;;;;-146.58;100.00;69501.63;5009767;28;20636;-60
2023/06/05 08:02:24;;;;;;;13.40;8.27;;;;;;;-146.58;100.00;69501.63;5011221;28;20617;-61
2023/06/05 08:04:49;;;;;;;16.98;7.20;;;;;;;-146.58;100.00;69501.63;5009737;28;20104;-61
2023/06/05 08:07:14;;;;;;;10.63;7.22;;;;;;;-146.58;100.00;69501.63;5011028;28;20033;-60
2023/06/05 08:09:40;;;;;;;16.75;9.52;;;;;;;-146.58;100.00;69501.63;5009629;28;20046;-61
2023/06/05 08:12:06;;;;;;;20.95;10.20;;;;;;;-146.58;100.00;69501.63;5011784;28;20377;-61
2023/06/05 08:14:33;;;;;;;10.40;9.15;;;;;;;-146.58;100.00;69501.63;5010594;28;20104;-60
2023/06/05 08:16:58;;;;;;;11.20;8.75;;;;;;;-146.58;100.00;69501.63;5011881;28;20366;-61
2023/06/05 08:19:24;;;;;;;15.52;8.20;;;;;;;-146.58;100.00;69501.63;5010613;28;20045;-61
2023/06/05 08:21:53;;;;;;;13.73;7.65;;;;;;;-146.58;100.00;69501.63;5011424;28;20048;-60
2023/06/05 08:24:20;;;;;;;15.32;9.40;;;;;;;-146.58;100.00;69501.63;5010508;28;20037;-60
2023/06/05 08:26:45;;;;;;;12.25;8.20;;;;;;;-146.58;100.00;69501.63;5011846;28;20118;-60
2023/06/05 08:29:12;;;;;;;8.70;6.50;;;;;;;-146.58;100.00;69501.63;5010077;28;20046;-61
2023/06/05 08:31:37;;;;;;;12.23;8.68;;;;;;;-146.58;100.00;69501.63;5011383;28;20033;-61
2023/06/05 08:34:03;;;;;;;10.30;7.82;;;;;;;-146.58;100.00;69501.63;5010305;28;20458;-61
2023/06/05 08:36:28;;;;;;;13.27;8.60;;;;;;;-146.58;100.00;69501.63;5011295;28;20021;-61
2023/06/05 08:38:54;;;;;;;17.00;7.18;;;;;;;-146.58;100.00;69501.63;5010280;28;20504;-60
2023/06/05 08:41:20;;;;;;;15.73;8.95;;;;;;;-146.58;100.00;69501.63;5011832;28;20157;-61
2023/06/05 08:43:46;;;;;;;7.95;6.22;;;;;;;-146.58;100.00;69501.63;5009692;28;20038;-61
2023/06/05 08:46:13;;;;;;;10.60;6.53;;;;;;;-146.58;100.00;69501.63;5011969;28;20049;-61
2023/06/05 08:48:46;;;;;;;12.95;7.55;;;;;;;-146.58;100.00;69501.63;5009685;28;20045;-61
2023/06/05 08:51:14;;;;;;;12.23;7.35;;;;;;;-146.58;100.00;69501.63;5011010;28;20500;-61
2023/06/05 08:53:42;;;;;;;16.63;7.80;;;;;;;-146.58;100.00;69501.63;5013673;28;20534;-61
2023/06/05 08:56:08;;;;;;;10.80;6.97;;;;;;;-146.58;100.00;69501.63;5031370;28;20104;-61
2023/06/05 08:58:34;;;;;;;11.00;7.40;;;;;;;-146.58;100.00;69501.63;5029509;28;20091;-61
2023/06/05 09:01:00;;;;;;;13.27;7.05;;;;;;;-146.58;100.00;69501.63;5030880;28;20059;-61
2023/06/05 09:03:26;;;;;;;10.93;8.15;;;;;;;-146.58;100.00;69501.63;5029531;28;20058;-61
2023/06/05 09:05:52;;;;;;;20.58;8.95;;;;;;;-146.58;100.00;69501.63;5030340;28;20542;-60
2023/06/05 09:08:28;;;;;;;11.93;6.38;;;;;;;-146.58;100.00;69501.63;5029616;28;20435;-60
2023/06/05 09:10:53;;;;;;;8.82;7.00;;;;;;;-146.58;100.00;69501.63;5030445;28;20029;-61
2023/06/05 09:13:19;;;;;;;10.35;7.28;;;;;;;-146.58;100.00;69501.63;5029067;28;20369;-61
2023/06/05 09:15:50;;;;;;;15.90;7.75;;;;;;;-146.58;100.00;69501.63;5030568;28;20280;-61
2023/06/05 09:18:16;;;;;;;14.10;7.47;;;;;;;-146.58;100.00;69501.63;5029726;28;20024;-60
2023/06/05 09:20:45;;;;;;;6.45;5.70;;;;;;;-146.58;100.00;69501.63;5030398;28;20026;-61
2023/06/05 09:23:27;;;;;;;13.15;8.45;;;;;;;-146.58;100.00;69501.63;5030871;28;20056;-61
2023/06/05 09:25:54;;;;;;;8.07;6.43;;;;;;;-146.58;100.00;69501.63;5009800;28;20053;-61
2023/06/05 09:28:20;;;;;;;12.85;6.68;;;;;;;-146.58;100.00;69501.63;5009262;28;20436;-60
2023/06/05 09:30:59;;;;;;;10.75;7.20;;;;;;;-146.58;100.00;69501.63;5010828;28;20025;-61
2023/06/05 09:33:27;;;;;;;8.88;6.78;;;;;;;-146.58;100.00;69501.63;5009712;28;20109;-61
2023/06/05 09:36:05;;;;;;;23.10;11.00;;;;;;;-146.58;100.00;69501.63;5010820;28;20018;-61
2023/06/05 09:38:30;;;;;;;12.68;8.45;;;;;;;-146.58;100.00;69501.63;5009807;28;20038;-60
2023/06/05 09:41:03;;;;;;;10.75;8.52;;;;;;;-146.58;100.00;69501.63;5011354;28;20049;-61
2023/06/05 09:43:29;;;;;;;16.90;8.23;;;;;;;-146.58;100.00;69501.63;5009196;28;20057;-61
2023/06/05 09:45:54;;;;;;;12.93;7.22;;;;;;;-146.58;100.00;69501.63;5010359;28;20060;-60
2023/06/05 09:48:19;;;;;;;14.07;8.93;;;;;;;-146.58;100.00;69501.63;5009655;28;20079;-61
2023/06/05 09:50:45;;;;;;;20.73;7.97;;;;;;;-146.58;100.00;69501.63;5010269;28;20026;-61
2023/06/05 09:53:16;;;;;;;13.55;7.00;;;;;;;-146.58;100.00;69501.63;5010954;28;20389;-60
2023/06/05 09:55:42;;;;;;;15.57;7.15;;;;;;;-146.58;100.00;69501.63;5009647;28;20050;-60
2023/06/05 09:58:13;;;;;;;10.60;6.13;;;;;;;-146.58;100.00;69501.63;5010430;28;20030;-61
2023/06/05 10:00:41;;;;;;;11.20;7.53;;;;;;;-146.58;100.00;69501.63;5009614;28;20067;-62
2023/06/05 10:03:13;;;;;;;11.88;7.97;;;;;;;-146.58;100.00;69501.63;5010736;28;20049;-61
2023/06/05 10:05:39;;;;;;;10.27;7.78;;;;;;;-146.58;100.00;69501.63;5028875;28;20114;-60
2023/06/05 10:08:06;;;;;;;13.18;7.60;;;;;;;-146.58;100.00;69501.63;5030412;28;20029;-60
2023/06/05 10:10:33;;;;;;;7.53;6.40;;;;;;;-146.58;100.00;69501.63;5027976;28;20051;-60
2023/06/05 10:13:00;;;;;;;16.17;7.20;;;;;;;-146.58;100.00;69501.63;5029297;28;20634;-61
2023/06/05 10:15:26;;;;;;;12.98;7.45;;;;;;;-146.58;100.00;69501.63;5027812;28;20084;-61
2023/06/05 10:17:52;;;;;;;8.45;4.95;;;;;;;-146.58;100.00;69501.63;5029941;28;20021;-61
2023/06/05 10:20:18;;;;;;;9.77;7.43;;;;;;;-146.58;100.00;69501.63;5027629;28;20389;-61
2023/06/05 10:22:44;;;;;;;14.68;8.18;;;;;;;-146.58;100.00;69501.63;5030032;28;20021;-61
2023/06/05 10:25:12;;;;;;;9.55;5.90;;;;;;;-146.58;100.00;69501.63;5032055;28;20056;-61
2023/06/05 10:27:43;;;;;;;8.87;6.10;;;;;;;-146.58;100.00;69501.63;5033122;28;20493;-60
2023/06/05 10:30:15;;;;;;;18.42;6.80;;;;;;;-146.58;100.00;69501.63;5031764;28;20041;-61
2023/06/05 10:33:01;;;;;;;9.57;7.75;;;;;;;-146.58;100.00;69501.63;5027329;28;20522;-61
2023/06/05 10:35:45;;;;;;;9.10;6.45;;;;;;;-146.58;100.00;69501.63;5011496;28;20041;-61
2023/06/05 10:38:21;;;;;;;13.98;7.10;;;;;;;-146.58;100.00;69501.63;5013855;28;20029;-61
2023/06/05 10:40:54;;;;;;;13.23;6.32;;;;;;;-146.58;100.00;69501.63;5011899;28;20497;-61
2023/06/05 10:43:44;;;;;;;7.20;6.03;;;;;;;-146.58;100.00;69501.63;5012322;28;20021;-61
2023/06/05 10:46:29;;;;;;;10.68;7.13;;;;;;;-146.58;100.00;69501.63;5013981;28;20034;-61
2023/06/05 10:49:15;;;;;;;11.82;6.68;;;;;;;-146.58;100.00;69501.63;5010647;28;20442;-61
2023/06/05 10:51:46;;;;;;;13.25;7.47;;;;;;;-146.58;100.00;69501.63;5013606;28;20033;-61
2023/06/05 10:54:16;;;;;;;14.88;7.95;;;;;;;-146.58;100.00;69501.63;5012362;28;20037;-61
2023/06/05 10:56:55;;;;;;;9.57;6.07;;;;;;;-146.58;100.00;69501.63;5013081;28;20049;-61
2023/06/05 10:59:22;;;;;;;7.30;6.05;;;;;;;-146.58;100.00;69501.63;5012229;28;20049;-61